sensor_id;sensor_type;location;lat;lon;timestamp;P1;durP1;ratioP1;P2;durP2;ratioP2
77322;SDS011;66384;51.052;9.850;2023-06-26T00:00:09;8.10;;;5.10;;
77322;SDS011;66384;51.052;9.850;2023-06-26T00:03:02;5.80;;;5.10;;
77322;SDS011;66384;51.052;9.850;2023-06-26T00:05:34;6.60;;;5.20;;
77322;SDS011;66384;51.052;9.850;2023-06-26T00:08:06;6.40;;;5.20;;
77322;SDS011;66384;51.052;9.850;2023-06-26T00:10:38;7.80;;;5.40;;
77322;SDS011;66384;51.052;9.850;2023-06-26T00:13:09;8.20;;;5.40;;
77322;SDS011;66384;51.052;9.850;2023-06-26T00:15:41;9.60;;;5.30;;
77322;SDS011;66384;51.052;9.850;2023-06-26T00:18:13;7.10;;;4.70;;
77322;SDS011;66384;51.052;9.850;2023-06-26T00:20:44;6.80;;;5.10;;
77322;SDS011;66384;51.052;9.850;2023-06-26T00:23:17;9.80;;;5.20;;
77322;SDS011;66384;51.052;9.850;2023-06-26T00:25:48;8.50;;;5.50;;
77322;SDS011;66384;51.052;9.850;2023-06-26T00:28:20;7.30;;;5.60;;
77322;SDS011;66384;51.052;9.850;2023-06-26T00:30:52;13.10;;;5.70;;
77322;SDS011;66384;51.052;9.850;2023-06-26T00:33:24;6.80;;;5.70;;
77322;SDS011;66384;51.052;9.850;2023-06-26T00:35:55;8.60;;;5.80;;
77322;SDS011;66384;51.052;9.850;2023-06-26T00:38:27;9.10;;;5.40;;
77322;SDS011;66384;51.052;9.850;2023-06-26T00:40:59;8.80;;;5.50;;
77322;SDS011;66384;51.052;9.850;2023-06-26T00:43:31;9.70;;;5.40;;
77322;SDS011;66384;51.052;9.850;2023-06-26T00:46:02;12.30;;;5.90;;
77322;SDS011;66384;51.052;9.850;2023-06-26T00:48:34;12.70;;;5.30;;
77322;SDS011;66384;51.052;9.850;2023-06-26T00:51:06;7.00;;;4.90;;
77322;SDS011;66384;51.052;9.850;2023-06-26T00:53:38;10.20;;;5.80;;
77322;SDS011;66384;51.052;9.850;2023-06-26T00:56:11;9.00;;;5.50;;
77322;SDS011;66384;51.052;9.850;2023-06-26T00:58:43;6.90;;;5.50;;
77322;SDS011;66384;51.052;9.850;2023-06-26T01:01:15;10.80;;;5.90;;
77322;SDS011;66384;51.052;9.850;2023-06-26T01:03:50;7.60;;;5.50;;
77322;SDS011;66384;51.052;9.850;2023-06-26T01:06:23;7.70;;;5.10;;
77322;SDS011;66384;51.052;9.850;2023-06-26T01:08:58;7.30;;;5.10;;
77322;SDS011;66384;51.052;9.850;2023-06-26T01:11:31;9.10;;;5.10;;
77322;SDS011;66384;51.052;9.850;2023-06-26T01:14:02;6.70;;;5.30;;
77322;SDS011;66384;51.052;9.850;2023-06-26T01:16:34;7.50;;;6.20;;
77322;SDS011;66384;51.052;9.850;2023-06-26T01:19:09;11.60;;;6.40;;
77322;SDS011;66384;51.052;9.850;2023-06-26T01:21:54;8.90;;;5.80;;
77322;SDS011;66384;51.052;9.850;2023-06-26T01:24:31;12.70;;;5.40;;
77322;SDS011;66384;51.052;9.850;2023-06-26T01:27:07;7.60;;;4.90;;
77322;SDS011;66384;51.052;9.850;2023-06-26T01:29:40;7.20;;;5.50;;
77322;SDS011;66384;51.052;9.850;2023-06-26T01:32:12;8.20;;;5.00;;
77322;SDS011;66384;51.052;9.850;2023-06-26T01:34:44;6.30;;;4.60;;
77322;SDS011;66384;51.052;9.850;2023-06-26T01:37:16;11.30;;;5.40;;
77322;SDS011;66384;51.052;9.850;2023-06-26T01:39:48;7.30;;;5.20;;
77322;SDS011;66384;51.052;9.850;2023-06-26T01:42:20;10.00;;;5.20;;
77322;SDS011;66384;51.052;9.850;2023-06-26T01:44:52;13.80;;;5.70;;
77322;SDS011;66384;51.052;9.850;2023-06-26T01:47:25;9.80;;;5.70;;
77322;SDS011;66384;51.052;9.850;2023-06-26T01:50:02;12.00;;;4.90;;
77322;SDS011;66384;51.052;9.850;2023-06-26T01:52:40;9.20;;;5.80;;
77322;SDS011;66384;51.052;9.850;2023-06-26T01:55:15;9.00;;;5.30;;
77322;SDS011;66384;51.052;9.850;2023-06-26T01:57:54;11.80;;;5.20;;
77322;SDS011;66384;51.052;9.850;2023-06-26T02:00:28;6.60;;;4.90;;
77322;SDS011;66384;51.052;9.850;2023-06-26T02:03:01;8.80;;;4.60;;
77322;SDS011;66384;51.052;9.850;2023-06-26T02:05:34;12.70;;;5.40;;
77322;SDS011;66384;51.052;9.850;2023-06-26T02:08:05;9.50;;;4.90;;
77322;SDS011;66384;51.052;9.850;2023-06-26T02:10:38;8.70;;;5.40;;
77322;SDS011;66384;51.052;9.850;2023-06-26T02:13:10;7.60;;;4.80;;
77322;SDS011;66384;51.052;9.850;2023-06-26T02:15:41;15.80;;;6.50;;
77322;SDS011;66384;51.052;9.850;2023-06-26T02:18:13;9.80;;;5.10;;
77322;SDS011;66384;51.052;9.850;2023-06-26T02:20:44;8.30;;;5.80;;
77322;SDS011;66384;51.052;9.850;2023-06-26T02:23:16;9.90;;;6.20;;
77322;SDS011;66384;51.052;9.850;2023-06-26T02:25:48;15.40;;;5.10;;
77322;SDS011;66384;51.052;9.850;2023-06-26T02:28:19;9.60;;;5.20;;
77322;SDS011;66384;51.052;9.850;2023-06-26T02:30:51;9.10;;;5.30;;
77322;SDS011;66384;51.052;9.850;2023-06-26T02:33:22;7.70;;;5.10;;
77322;SDS011;66384;51.052;9.850;2023-06-26T02:35:54;6.90;;;4.60;;
77322;SDS011;66384;51.052;9.850;2023-06-26T02:38:25;9.00;;;5.10;;
77322;SDS011;66384;51.052;9.850;2023-06-26T02:40:57;10.20;;;5.10;;
77322;SDS011;66384;51.052;9.850;2023-06-26T02:43:28;11.70;;;6.10;;
77322;SDS011;66384;51.052;9.850;2023-06-26T02:46:00;8.80;;;5.60;;
77322;SDS011;66384;51.052;9.850;2023-06-26T02:48:31;8.20;;;4.50;;
77322;SDS011;66384;51.052;9.850;2023-06-26T02:51:03;10.40;;;5.00;;
77322;SDS011;66384;51.052;9.850;2023-06-26T02:53:35;7.90;;;5.20;;
77322;SDS011;66384;51.052;9.850;2023-06-26T02:56:07;13.20;;;6.30;;
77322;SDS011;66384;51.052;9.850;2023-06-26T02:58:38;8.00;;;5.30;;
77322;SDS011;66384;51.052;9.850;2023-06-26T03:01:10;10.00;;;5.60;;
77322;SDS011;66384;51.052;9.850;2023-06-26T03:03:45;11.30;;;5.80;;
77322;SDS011;66384;51.052;9.850;2023-06-26T03:06:17;9.00;;;5.10;;
77322;SDS011;66384;51.052;9.850;2023-06-26T03:08:49;10.80;;;5.80;;
77322;SDS011;66384;51.052;9.850;2023-06-26T03:11:21;10.60;;;5.80;;
77322;SDS011;66384;51.052;9.850;2023-06-26T03:13:53;12.50;;;5.30;;
77322;SDS011;66384;51.052;9.850;2023-06-26T03:16:24;8.90;;;5.40;;
77322;SDS011;66384;51.052;9.850;2023-06-26T03:18:56;16.40;;;5.90;;
77322;SDS011;66384;51.052;9.850;2023-06-26T03:21:28;12.00;;;5.40;;
77322;SDS011;66384;51.052;9.850;2023-06-26T03:24:00;9.50;;;4.30;;
77322;SDS011;66384;51.052;9.850;2023-06-26T03:26:32;10.40;;;5.10;;
77322;SDS011;66384;51.052;9.850;2023-06-26T03:29:03;9.00;;;5.90;;
77322;SDS011;66384;51.052;9.850;2023-06-26T03:31:35;12.30;;;4.90;;
77322;SDS011;66384;51.052;9.850;2023-06-26T03:34:07;10.20;;;5.40;;
77322;SDS011;66384;51.052;9.850;2023-06-26T03:36:38;14.00;;;6.40;;
77322;SDS011;66384;51.052;9.850;2023-06-26T03:39:10;9.70;;;5.40;;
77322;SDS011;66384;51.052;9.850;2023-06-26T03:41:41;14.20;;;6.10;;
77322;SDS011;66384;51.052;9.850;2023-06-26T03:44:13;8.00;;;4.90;;
77322;SDS011;66384;51.052;9.850;2023-06-26T03:46:45;11.80;;;5.80;;
77322;SDS011;66384;51.052;9.850;2023-06-26T03:49:17;8.70;;;5.10;;
77322;SDS011;66384;51.052;9.850;2023-06-26T03:51:48;9.30;;;5.10;;
77322;SDS011;66384;51.052;9.850;2023-06-26T03:54:20;12.60;;;5.50;;
77322;SDS011;66384;51.052;9.850;2023-06-26T03:56:52;13.90;;;6.00;;
77322;SDS011;66384;51.052;9.850;2023-06-26T03:59:23;10.00;;;6.00;;
77322;SDS011;66384;51.052;9.850;2023-06-26T04:01:55;12.70;;;5.30;;
77322;SDS011;66384;51.052;9.850;2023-06-26T04:04:27;10.40;;;5.70;;
77322;SDS011;66384;51.052;9.850;2023-06-26T04:06:59;9.90;;;5.90;;
77322;SDS011;66384;51.052;9.850;2023-06-26T04:09:31;9.80;;;6.00;;
77322;SDS011;66384;51.052;9.850;2023-06-26T04:12:03;10.30;;;6.20;;
77322;SDS011;66384;51.052;9.850;2023-06-26T04:14:35;10.00;;;5.70;;
77322;SDS011;66384;51.052;9.850;2023-06-26T04:17:07;15.30;;;5.90;;
77322;SDS011;66384;51.052;9.850;2023-06-26T04:19:39;9.30;;;6.00;;
77322;SDS011;66384;51.052;9.850;2023-06-26T04:22:11;16.00;;;8.00;;
77322;SDS011;66384;51.052;9.850;2023-06-26T04:24:42;13.70;;;6.20;;
77322;SDS011;66384;51.052;9.850;2023-06-26T04:27:14;9.40;;;5.90;;
77322;SDS011;66384;51.052;9.850;2023-06-26T04:29:46;8.20;;;5.70;;
77322;SDS011;66384;51.052;9.850;2023-06-26T04:32:17;11.10;;;6.00;;
77322;SDS011;66384;51.052;9.850;2023-06-26T04:34:49;9.60;;;6.50;;
77322;SDS011;66384;51.052;9.850;2023-06-26T04:37:21;11.90;;;6.10;;
77322;SDS011;66384;51.052;9.850;2023-06-26T04:39:53;9.60;;;6.40;;
77322;SDS011;66384;51.052;9.850;2023-06-26T04:42:24;10.20;;;6.80;;
77322;SDS011;66384;51.052;9.850;2023-06-26T04:44:56;10.10;;;6.60;;
77322;SDS011;66384;51.052;9.850;2023-06-26T04:47:27;11.50;;;6.90;;
77322;SDS011;66384;51.052;9.850;2023-06-26T04:49:59;15.00;;;6.50;;
77322;SDS011;66384;51.052;9.850;2023-06-26T04:52:31;9.80;;;6.80;;
77322;SDS011;66384;51.052;9.850;2023-06-26T04:55:03;7.90;;;6.60;;
77322;SDS011;66384;51.052;9.850;2023-06-26T04:57:35;11.30;;;6.40;;
77322;SDS011;66384;51.052;9.850;2023-06-26T05:00:07;10.70;;;6.60;;
77322;SDS011;66384;51.052;9.850;2023-06-26T05:02:40;11.00;;;6.90;;
77322;SDS011;66384;51.052;9.850;2023-06-26T05:05:12;20.00;;;13.60;;
77322;SDS011;66384;51.052;9.850;2023-06-26T05:07:44;14.90;;;11.30;;
77322;SDS011;66384;51.052;9.850;2023-06-26T05:10:15;10.60;;;8.10;;
77322;SDS011;66384;51.052;9.850;2023-06-26T05:12:47;9.20;;;7.90;;
77322;SDS011;66384;51.052;9.850;2023-06-26T05:15:18;9.70;;;7.10;;
77322;SDS011;66384;51.052;9.850;2023-06-26T05:17:50;10.10;;;7.80;;
77322;SDS011;66384;51.052;9.850;2023-06-26T05:20:22;11.10;;;8.20;;
77322;SDS011;66384;51.052;9.850;2023-06-26T05:22:54;9.40;;;7.60;;
77322;SDS011;66384;51.052;9.850;2023-06-26T05:25:26;13.20;;;8.20;;
77322;SDS011;66384;51.052;9.850;2023-06-26T05:27:59;9.90;;;7.30;;
77322;SDS011;66384;51.052;9.850;2023-06-26T05:30:34;10.20;;;7.10;;
77322;SDS011;66384;51.052;9.850;2023-06-26T05:33:07;10.10;;;7.60;;
77322;SDS011;66384;51.052;9.850;2023-06-26T05:35:40;10.60;;;7.20;;
77322;SDS011;66384;51.052;9.850;2023-06-26T05:38:13;12.60;;;7.60;;
77322;SDS011;66384;51.052;9.850;2023-06-26T05:40:46;9.80;;;8.40;;
77322;SDS011;66384;51.052;9.850;2023-06-26T05:43:18;11.50;;;8.80;;
77322;SDS011;66384;51.052;9.850;2023-06-26T05:45:57;14.70;;;10.70;;
77322;SDS011;66384;51.052;9.850;2023-06-26T05:48:28;10.80;;;9.30;;
77322;SDS011;66384;51.052;9.850;2023-06-26T05:51:01;12.30;;;8.10;;
77322;SDS011;66384;51.052;9.850;2023-06-26T05:53:33;10.00;;;8.40;;
77322;SDS011;66384;51.052;9.850;2023-06-26T05:56:06;11.30;;;8.30;;
77322;SDS011;66384;51.052;9.850;2023-06-26T05:58:39;9.90;;;8.10;;
77322;SDS011;66384;51.052;9.850;2023-06-26T06:01:12;9.70;;;8.20;;
77322;SDS011;66384;51.052;9.850;2023-06-26T06:03:44;11.40;;;9.00;;
77322;SDS011;66384;51.052;9.850;2023-06-26T06:06:16;11.30;;;8.90;;
77322;SDS011;66384;51.052;9.850;2023-06-26T06:08:48;10.20;;;8.00;;
77322;SDS011;66384;51.052;9.850;2023-06-26T06:11:20;10.40;;;8.60;;
77322;SDS011;66384;51.052;9.850;2023-06-26T06:13:52;15.70;;;10.60;;
77322;SDS011;66384;51.052;9.850;2023-06-26T06:16:23;10.90;;;8.80;;
77322;SDS011;66384;51.052;9.850;2023-06-26T06:18:57;15.00;;;8.90;;
77322;SDS011;66384;51.052;9.850;2023-06-26T06:21:29;13.00;;;10.00;;
77322;SDS011;66384;51.052;9.850;2023-06-26T06:24:00;11.70;;;9.40;;
77322;SDS011;66384;51.052;9.850;2023-06-26T06:26:32;11.70;;;8.50;;
77322;SDS011;66384;51.052;9.850;2023-06-26T06:29:04;12.00;;;9.20;;
77322;SDS011;66384;51.052;9.850;2023-06-26T06:31:36;14.10;;;8.50;;
77322;SDS011;66384;51.052;9.850;2023-06-26T06:34:07;11.10;;;8.40;;
77322;SDS011;66384;51.052;9.850;2023-06-26T06:36:39;10.20;;;8.40;;
77322;SDS011;66384;51.052;9.850;2023-06-26T06:39:10;10.00;;;8.20;;
77322;SDS011;66384;51.052;9.850;2023-06-26T06:41:43;10.40;;;8.40;;
77322;SDS011;66384;51.052;9.850;2023-06-26T06:44:14;10.90;;;8.30;;
77322;SDS011;66384;51.052;9.850;2023-06-26T06:46:46;12.20;;;8.80;;
77322;SDS011;66384;51.052;9.850;2023-06-26T06:49:18;10.60;;;8.60;;
77322;SDS011;66384;51.052;9.850;2023-06-26T06:51:49;10.50;;;8.00;;
77322;SDS011;66384;51.052;9.850;2023-06-26T06:54:21;9.60;;;7.90;;
77322;SDS011;66384;51.052;9.850;2023-06-26T06:56:55;9.50;;;8.30;;
77322;SDS011;66384;51.052;9.850;2023-06-26T06:59:27;7.90;;;6.30;;
77322;SDS011;66384;51.052;9.850;2023-06-26T07:01:59;9.10;;;6.70;;
77322;SDS011;66384;51.052;9.850;2023-06-26T07:04:30;10.00;;;7.70;;
77322;SDS011;66384;51.052;9.850;2023-06-26T07:07:02;9.70;;;6.70;;
77322;SDS011;66384;51.052;9.850;2023-06-26T07:09:34;8.90;;;7.40;;
77322;SDS011;66384;51.052;9.850;2023-06-26T07:12:06;9.00;;;6.80;;
77322;SDS011;66384;51.052;9.850;2023-06-26T07:14:39;9.00;;;6.80;;
77322;SDS011;66384;51.052;9.850;2023-06-26T07:17:11;8.30;;;6.90;;
77322;SDS011;66384;51.052;9.850;2023-06-26T07:19:42;9.80;;;7.50;;
77322;SDS011;66384;51.052;9.850;2023-06-26T07:22:15;8.30;;;7.00;;
77322;SDS011;66384;51.052;9.850;2023-06-26T07:24:49;8.10;;;6.80;;
77322;SDS011;66384;51.052;9.850;2023-06-26T07:27:20;8.20;;;6.00;;
77322;SDS011;66384;51.052;9.850;2023-06-26T07:29:52;8.10;;;7.20;;
77322;SDS011;66384;51.052;9.850;2023-06-26T07:32:24;9.90;;;7.80;;
77322;SDS011;66384;51.052;9.850;2023-06-26T07:34:55;8.90;;;7.70;;
77322;SDS011;66384;51.052;9.850;2023-06-26T07:37:27;9.00;;;8.10;;
77322;SDS011;66384;51.052;9.850;2023-06-26T07:39:59;8.00;;;7.10;;
77322;SDS011;66384;51.052;9.850;2023-06-26T07:42:31;7.50;;;6.50;;
77322;SDS011;66384;51.052;9.850;2023-06-26T07:45:02;8.70;;;7.60;;
77322;SDS011;66384;51.052;9.850;2023-06-26T07:47:39;7.70;;;6.70;;
77322;SDS011;66384;51.052;9.850;2023-06-26T07:50:11;10.40;;;7.70;;
77322;SDS011;66384;51.052;9.850;2023-06-26T07:52:48;8.30;;;7.40;;
77322;SDS011;66384;51.052;9.850;2023-06-26T07:55:21;7.30;;;6.50;;
77322;SDS011;66384;51.052;9.850;2023-06-26T07:57:52;8.50;;;7.60;;
77322;SDS011;66384;51.052;9.850;2023-06-26T08:00:24;8.70;;;7.00;;
77322;SDS011;66384;51.052;9.850;2023-06-26T08:02:56;8.60;;;7.00;;
77322;SDS011;66384;51.052;9.850;2023-06-26T08:05:28;11.10;;;8.00;;
77322;SDS011;66384;51.052;9.850;2023-06-26T08:07:59;9.30;;;8.30;;
77322;SDS011;66384;51.052;9.850;2023-06-26T08:10:31;8.60;;;7.40;;
77322;SDS011;66384;51.052;9.850;2023-06-26T08:13:03;9.00;;;8.00;;
77322;SDS011;66384;51.052;9.850;2023-06-26T08:15:35;9.70;;;7.80;;
77322;SDS011;66384;51.052;9.850;2023-06-26T08:18:07;9.50;;;7.60;;
77322;SDS011;66384;51.052;9.850;2023-06-26T08:20:39;10.90;;;9.00;;
77322;SDS011;66384;51.052;9.850;2023-06-26T08:23:10;9.30;;;7.20;;
77322;SDS011;66384;51.052;9.850;2023-06-26T08:25:42;8.40;;;7.10;;
77322;SDS011;66384;51.052;9.850;2023-06-26T08:28:15;8.20;;;7.30;;
77322;SDS011;66384;51.052;9.850;2023-06-26T08:30:47;8.40;;;7.60;;
77322;SDS011;66384;51.052;9.850;2023-06-26T08:33:19;10.00;;;7.70;;
77322;SDS011;66384;51.052;9.850;2023-06-26T08:35:51;10.10;;;7.40;;
77322;SDS011;66384;51.052;9.850;2023-06-26T08:38:22;9.70;;;7.60;;
77322;SDS011;66384;51.052;9.850;2023-06-26T08:40:54;8.10;;;7.10;;
77322;SDS011;66384;51.052;9.850;2023-06-26T08:43:26;10.30;;;8.60;;
77322;SDS011;66384;51.052;9.850;2023-06-26T08:45:57;9.30;;;8.40;;
77322;SDS011;66384;51.052;9.850;2023-06-26T08:48:31;9.70;;;8.70;;
77322;SDS011;66384;51.052;9.850;2023-06-26T08:51:09;7.80;;;7.00;;
77322;SDS011;66384;51.052;9.850;2023-06-26T08:53:43;8.70;;;7.60;;
77322;SDS011;66384;51.052;9.850;2023-06-26T08:56:19;9.50;;;7.90;;
77322;SDS011;66384;51.052;9.850;2023-06-26T08:58:53;9.00;;;8.00;;
77322;SDS011;66384;51.052;9.850;2023-06-26T09:01:26;10.10;;;8.60;;
77322;SDS011;66384;51.052;9.850;2023-06-26T09:03:58;12.90;;;8.00;;
77322;SDS011;66384;51.052;9.850;2023-06-26T09:06:29;8.70;;;7.80;;
77322;SDS011;66384;51.052;9.850;2023-06-26T09:09:01;10.10;;;8.00;;
77322;SDS011;66384;51.052;9.850;2023-06-26T09:11:33;8.70;;;7.70;;
77322;SDS011;66384;51.052;9.850;2023-06-26T09:14:04;8.50;;;7.50;;
77322;SDS011;66384;51.052;9.850;2023-06-26T09:16:40;8.70;;;7.80;;
77322;SDS011;66384;51.052;9.850;2023-06-26T09:19:12;11.50;;;8.10;;
77322;SDS011;66384;51.052;9.850;2023-06-26T09:21:45;8.70;;;7.20;;
77322;SDS011;66384;51.052;9.850;2023-06-26T09:24:20;9.80;;;7.60;;
77322;SDS011;66384;51.052;9.850;2023-06-26T09:26:52;11.20;;;8.80;;
77322;SDS011;66384;51.052;9.850;2023-06-26T09:29:25;8.70;;;7.80;;
77322;SDS011;66384;51.052;9.850;2023-06-26T09:31:58;9.40;;;8.40;;
77322;SDS011;66384;51.052;9.850;2023-06-26T09:34:33;8.70;;;7.80;;
77322;SDS011;66384;51.052;9.850;2023-06-26T09:37:05;12.30;;;8.70;;
77322;SDS011;66384;51.052;9.850;2023-06-26T09:39:37;8.00;;;7.20;;
77322;SDS011;66384;51.052;9.850;2023-06-26T09:42:08;9.20;;;8.30;;
77322;SDS011;66384;51.052;9.850;2023-06-26T09:44:44;9.10;;;8.20;;
77322;SDS011;66384;51.052;9.850;2023-06-26T09:47:18;8.70;;;6.90;;
77322;SDS011;66384;51.052;9.850;2023-06-26T09:52:25;7.10;;;6.10;;
77322;SDS011;66384;51.052;9.850;2023-06-26T09:55:10;8.80;;;7.90;;
77322;SDS011;66384;51.052;9.850;2023-06-26T09:57:42;9.20;;;7.00;;
77322;SDS011;66384;51.052;9.850;2023-06-26T10:02:48;9.10;;;7.50;;
77322;SDS011;66384;51.052;9.850;2023-06-26T10:05:20;7.60;;;6.80;;
77322;SDS011;66384;51.052;9.850;2023-06-26T10:07:51;8.20;;;7.10;;
77322;SDS011;66384;51.052;9.850;2023-06-26T10:10:23;10.30;;;8.50;;
77322;SDS011;66384;51.052;9.850;2023-06-26T10:12:58;9.90;;;7.60;;
77322;SDS011;66384;51.052;9.850;2023-06-26T10:15:34;9.90;;;7.90;;
77322;SDS011;66384;51.052;9.850;2023-06-26T10:18:06;8.00;;;7.20;;
77322;SDS011;66384;51.052;9.850;2023-06-26T10:20:39;8.60;;;7.30;;
77322;SDS011;66384;51.052;9.850;2023-06-26T10:23:12;15.10;;;7.40;;
77322;SDS011;66384;51.052;9.850;2023-06-26T10:25:46;8.80;;;7.40;;
77322;SDS011;66384;51.052;9.850;2023-06-26T10:28:22;9.10;;;6.70;;
77322;SDS011;66384;51.052;9.850;2023-06-26T10:30:56;7.90;;;7.20;;
77322;SDS011;66384;51.052;9.850;2023-06-26T10:33:30;10.10;;;7.00;;
77322;SDS011;66384;51.052;9.850;2023-06-26T10:36:16;8.90;;;7.20;;
77322;SDS011;66384;51.052;9.850;2023-06-26T10:38:52;9.10;;;7.70;;
77322;SDS011;66384;51.052;9.850;2023-06-26T10:44:07;21.80;;;19.30;;
77322;SDS011;66384;51.052;9.850;2023-06-26T10:46:50;10.70;;;9.20;;
77322;SDS011;66384;51.052;9.850;2023-06-26T10:49:24;13.00;;;11.70;;
77322;SDS011;66384;51.052;9.850;2023-06-26T10:52:00;14.80;;;11.80;;
77322;SDS011;66384;51.052;9.850;2023-06-26T10:54:32;10.20;;;9.10;;
77322;SDS011;66384;51.052;9.850;2023-06-26T10:57:05;14.90;;;9.10;;
77322;SDS011;66384;51.052;9.850;2023-06-26T10:59:39;9.40;;;8.30;;
77322;SDS011;66384;51.052;9.850;2023-06-26T11:02:11;11.20;;;9.20;;
77322;SDS011;66384;51.052;9.850;2023-06-26T11:04:45;11.20;;;9.80;;
77322;SDS011;66384;51.052;9.850;2023-06-26T11:07:21;13.30;;;10.70;;
77322;SDS011;66384;51.052;9.850;2023-06-26T11:09:57;10.90;;;9.00;;
77322;SDS011;66384;51.052;9.850;2023-06-26T11:12:39;12.80;;;11.00;;
77322;SDS011;66384;51.052;9.850;2023-06-26T11:15:13;12.00;;;10.00;;
77322;SDS011;66384;51.052;9.850;2023-06-26T11:17:46;9.60;;;8.30;;
77322;SDS011;66384;51.052;9.850;2023-06-26T11:20:18;9.20;;;8.20;;
77322;SDS011;66384;51.052;9.850;2023-06-26T11:22:51;16.60;;;12.10;;
77322;SDS011;66384;51.052;9.850;2023-06-26T11:25:25;10.40;;;9.30;;
77322;SDS011;66384;51.052;9.850;2023-06-26T11:27:56;10.10;;;9.10;;
77322;SDS011;66384;51.052;9.850;2023-06-26T11:30:28;10.70;;;8.60;;
77322;SDS011;66384;51.052;9.850;2023-06-26T11:33:06;13.00;;;9.10;;
77322;SDS011;66384;51.052;9.850;2023-06-26T11:35:38;13.00;;;10.10;;
77322;SDS011;66384;51.052;9.850;2023-06-26T11:38:10;13.70;;;9.20;;
77322;SDS011;66384;51.052;9.850;2023-06-26T11:40:42;10.30;;;9.20;;
77322;SDS011;66384;51.052;9.850;2023-06-26T11:43:14;10.40;;;9.30;;
77322;SDS011;66384;51.052;9.850;2023-06-26T11:45:45;11.20;;;9.20;;
77322;SDS011;66384;51.052;9.850;2023-06-26T11:48:19;14.50;;;10.40;;
77322;SDS011;66384;51.052;9.850;2023-06-26T11:50:51;11.00;;;9.10;;
77322;SDS011;66384;51.052;9.850;2023-06-26T11:53:24;10.10;;;8.70;;
77322;SDS011;66384;51.052;9.850;2023-06-26T11:55:55;10.40;;;9.10;;
77322;SDS011;66384;51.052;9.850;2023-06-26T11:58:27;11.30;;;10.20;;
77322;SDS011;66384;51.052;9.850;2023-06-26T12:00:59;11.80;;;10.00;;
77322;SDS011;66384;51.052;9.850;2023-06-26T12:03:31;12.20;;;10.90;;
77322;SDS011;66384;51.052;9.850;2023-06-26T12:06:03;11.50;;;10.30;;
77322;SDS011;66384;51.052;9.850;2023-06-26T12:08:35;15.70;;;10.40;;
77322;SDS011;66384;51.052;9.850;2023-06-26T12:11:07;13.00;;;10.90;;
77322;SDS011;66384;51.052;9.850;2023-06-26T12:13:39;18.90;;;10.90;;
77322;SDS011;66384;51.052;9.850;2023-06-26T12:16:10;9.70;;;8.70;;
77322;SDS011;66384;51.052;9.850;2023-06-26T12:18:42;10.60;;;9.60;;
77322;SDS011;66384;51.052;9.850;2023-06-26T12:24:14;13.90;;;12.10;;
77322;SDS011;66384;51.052;9.850;2023-06-26T12:26:47;13.80;;;12.40;;
77322;SDS011;66384;51.052;9.850;2023-06-26T12:29:28;10.90;;;9.70;;
77322;SDS011;66384;51.052;9.850;2023-06-26T12:32:02;10.40;;;9.10;;
77322;SDS011;66384;51.052;9.850;2023-06-26T12:34:35;15.00;;;10.10;;
77322;SDS011;66384;51.052;9.850;2023-06-26T12:37:08;11.50;;;9.00;;
77322;SDS011;66384;51.052;9.850;2023-06-26T12:39:49;9.40;;;8.40;;
77322;SDS011;66384;51.052;9.850;2023-06-26T12:42:22;9.60;;;8.60;;
77322;SDS011;66384;51.052;9.850;2023-06-26T12:44:54;12.30;;;8.60;;
77322;SDS011;66384;51.052;9.850;2023-06-26T12:47:27;10.20;;;8.90;;
77322;SDS011;66384;51.052;9.850;2023-06-26T12:50:04;11.10;;;9.10;;
77322;SDS011;66384;51.052;9.850;2023-06-26T12:52:37;10.90;;;8.00;;
77322;SDS011;66384;51.052;9.850;2023-06-26T12:55:09;12.20;;;9.70;;
77322;SDS011;66384;51.052;9.850;2023-06-26T12:57:41;12.40;;;9.70;;
77322;SDS011;66384;51.052;9.850;2023-06-26T13:00:13;12.40;;;9.40;;
77322;SDS011;66384;51.052;9.850;2023-06-26T13:02:46;10.40;;;9.30;;
77322;SDS011;66384;51.052;9.850;2023-06-26T13:05:18;12.20;;;10.00;;
77322;SDS011;66384;51.052;9.850;2023-06-26T13:07:50;14.20;;;9.90;;
77322;SDS011;66384;51.052;9.850;2023-06-26T13:10:22;14.40;;;11.30;;
77322;SDS011;66384;51.052;9.850;2023-06-26T13:12:56;16.50;;;11.80;;
77322;SDS011;66384;51.052;9.850;2023-06-26T13:15:27;15.50;;;10.50;;
77322;SDS011;66384;51.052;9.850;2023-06-26T13:17:59;13.70;;;10.60;;
77322;SDS011;66384;51.052;9.850;2023-06-26T13:20:30;11.00;;;9.80;;
77322;SDS011;66384;51.052;9.850;2023-06-26T13:23:02;11.60;;;9.60;;
77322;SDS011;66384;51.052;9.850;2023-06-26T13:25:35;15.10;;;10.00;;
77322;SDS011;66384;51.052;9.850;2023-06-26T13:28:07;16.90;;;10.60;;
77322;SDS011;66384;51.052;9.850;2023-06-26T13:30:38;14.60;;;10.00;;
77322;SDS011;66384;51.052;9.850;2023-06-26T13:33:10;13.50;;;10.70;;
77322;SDS011;66384;51.052;9.850;2023-06-26T13:35:41;15.00;;;9.30;;
77322;SDS011;66384;51.052;9.850;2023-06-26T13:38:13;10.70;;;8.60;;
77322;SDS011;66384;51.052;9.850;2023-06-26T13:40:45;12.90;;;9.10;;
77322;SDS011;66384;51.052;9.850;2023-06-26T13:43:16;10.60;;;9.50;;
77322;SDS011;66384;51.052;9.850;2023-06-26T13:45:50;10.90;;;9.80;;
77322;SDS011;66384;51.052;9.850;2023-06-26T13:48:22;11.40;;;9.30;;
77322;SDS011;66384;51.052;9.850;2023-06-26T13:50:54;12.50;;;9.60;;
77322;SDS011;66384;51.052;9.850;2023-06-26T13:53:26;11.80;;;9.20;;
77322;SDS011;66384;51.052;9.850;2023-06-26T13:56:00;13.50;;;10.10;;
77322;SDS011;66384;51.052;9.850;2023-06-26T13:58:34;18.20;;;13.20;;
77322;SDS011;66384;51.052;9.850;2023-06-26T14:01:07;12.60;;;10.70;;
77322;SDS011;66384;51.052;9.850;2023-06-26T14:03:39;14.90;;;10.60;;
77322;SDS011;66384;51.052;9.850;2023-06-26T14:06:10;15.60;;;11.20;;
77322;SDS011;66384;51.052;9.850;2023-06-26T14:08:42;15.70;;;9.90;;
77322;SDS011;66384;51.052;9.850;2023-06-26T14:11:13;14.10;;;9.90;;
77322;SDS011;66384;51.052;9.850;2023-06-26T14:13:45;12.20;;;8.80;;
77322;SDS011;66384;51.052;9.850;2023-06-26T14:16:17;10.30;;;9.30;;
77322;SDS011;66384;51.052;9.850;2023-06-26T14:18:49;11.00;;;9.70;;
77322;SDS011;66384;51.052;9.850;2023-06-26T14:21:21;10.50;;;8.90;;
77322;SDS011;66384;51.052;9.850;2023-06-26T14:23:53;10.70;;;8.80;;
77322;SDS011;66384;51.052;9.850;2023-06-26T14:26:24;11.40;;;10.20;;
77322;SDS011;66384;51.052;9.850;2023-06-26T14:28:58;10.70;;;8.80;;
77322;SDS011;66384;51.052;9.850;2023-06-26T14:31:30;10.80;;;9.60;;
77322;SDS011;66384;51.052;9.850;2023-06-26T14:34:02;12.50;;;10.10;;
77322;SDS011;66384;51.052;9.850;2023-06-26T14:36:34;11.80;;;10.60;;
77322;SDS011;66384;51.052;9.850;2023-06-26T14:39:06;14.10;;;10.70;;
77322;SDS011;66384;51.052;9.850;2023-06-26T14:41:38;13.40;;;10.20;;
77322;SDS011;66384;51.052;9.850;2023-06-26T14:44:12;10.30;;;9.30;;
77322;SDS011;66384;51.052;9.850;2023-06-26T14:46:44;13.60;;;10.10;;
77322;SDS011;66384;51.052;9.850;2023-06-26T14:49:16;13.30;;;11.70;;
77322;SDS011;66384;51.052;9.850;2023-06-26T14:51:48;11.80;;;10.50;;
77322;SDS011;66384;51.052;9.850;2023-06-26T14:54:19;12.00;;;10.80;;
77322;SDS011;66384;51.052;9.850;2023-06-26T14:56:51;11.30;;;9.70;;
77322;SDS011;66384;51.052;9.850;2023-06-26T14:59:22;11.10;;;10.00;;
77322;SDS011;66384;51.052;9.850;2023-06-26T15:01:54;10.60;;;8.50;;
77322;SDS011;66384;51.052;9.850;2023-06-26T15:04:25;11.60;;;9.70;;
77322;SDS011;66384;51.052;9.850;2023-06-26T15:06:58;11.00;;;9.60;;
77322;SDS011;66384;51.052;9.850;2023-06-26T15:09:30;10.60;;;9.10;;
77322;SDS011;66384;51.052;9.850;2023-06-26T15:12:03;11.00;;;8.90;;
77322;SDS011;66384;51.052;9.850;2023-06-26T15:14:36;11.30;;;8.00;;
77322;SDS011;66384;51.052;9.850;2023-06-26T15:17:08;12.70;;;8.10;;
77322;SDS011;66384;51.052;9.850;2023-06-26T15:19:39;9.00;;;8.10;;